x

New York Harbor Entrance - 15 Nm Se Of Breezy Point , Ny (44065) Wave Buoy

2:50am - Sat 20th Sep 2014 All times are EDT. -4 hours from GMT.

  • Sig Wave height 3.3ft
  • Swell Direction
  • Peak Period 6s
  • Average Period 4s
  • Wind
    16mph, 18mph gusts
  • Sea Temp 70°f
  • Air Temp 65°f
  • Sea Pressure 1026.3mb
  • New York Harbor Entrance - 15 Nm Se Of Breezy Point , Ny
  • New York Harbor Entrance - 15 Nm Se Of Breezy Point , Ny

More Historic Weather Station data

Upgrade to MSW Pro to gain access to the past 30 days of data for over 8000 Wavebouys and Weather Stations around the globe.

Join Pro

Comparision Forecast

View Surf forecast
   
Sat 09/20 2:50am 3.5ft 6s 4s 16 18 mph 1026.3mb 70f 65f
1:50am 3ft 6s 4s 18 20 mph 1026.7mb 69f 64f
12:50am 3.5ft 6s 5s 16 18 mph 1027.4mb 70f 64f
Fri 09/19 11:50pm 3.5ft 6s 5s 13 18 mph 1028.5mb 70f 63f
10:50pm 3.5ft 6s 5s 16 18 mph 1028.7mb 70f 63f
9:50pm 3.5ft 6s 5s 13 18 mph 1028.8mb 70f 62f
8:50pm 3.5ft 6s 5s 16 18 mph 1029mb 70f 62f
7:50pm 3.5ft 7s 5s 16 18 mph 1028.1mb 70f 62f
6:50pm 3.5ft 6s 5s 16 20 mph 1027.7mb 70f 62f
5:50pm 3.5ft 5s 5s 16 18 mph 1027.5mb 70f 62f
4:50pm 4ft 6s 5s 16 20 mph 1027.7mb 70f 62f
3:50pm 4ft 6s 5s 13 16 mph 1027.9mb 70f 61f
2:50pm 3.5ft 6s 4s 16 18 mph 1027.8mb 70f 61f
1:50pm 3.5ft 5s 4s 18 20 mph 1027.7mb 70f 60f
11:50am 3.5ft 6s 4s 18 20 mph 1027.3mb 70f 60f
10:50am 3.5ft 5s 4s 18 22 mph 1027mb 70f 59f
9:50am 3.5ft 5s 4s 20 25 mph 1026.4mb 70f 59f
8:50am 3.5ft 5s 4s 20 25 mph 1025.7mb 70f 59f
7:50am 3.5ft 5s 4s 22 29 mph 1024.9mb 70f 59f
6:50am 3.5ft 4s 4s 22 27 mph 1023.8mb 70f 60f
5:50am 3.5ft 4s 4s 22 27 mph 1022.6mb 70f 62f
4:50am 3.5ft 4s 4s 22 27 mph 1021.5mb 70f 63f
3:50am 3.5ft 4s 4s 22 27 mph 1020.7mb 70f 64f
2:50am 3.5ft 10s 4s 22 27 mph 1020.1mb 70f 65f
1:50am 2.5ft 11s 4s 25 29 mph 1019.5mb 70f 66f
12:50am 2ft 11s 6s 20 25 mph 1019mb 70f 67f
Thu 09/18 11:50pm 2.5ft 11s 6s 9 11 mph 1018.9mb 70f 68f
10:50pm 2.5ft 11s 5s 11 13 mph 1018.5mb 70f 69f
9:50pm 2.5ft 12s 5s 11 13 mph 1018.1mb 71f 70f
8:50pm 2.5ft 12s 6s 11 13 mph 1017.7mb 71f 70f
7:50pm 2.5ft 12s 7s 11 13 mph 1016.7mb 71f 70f
6:50pm 2.5ft 13s 8s 11
mph
1016.2mb 71f 70f
5:50pm 2.5ft 12s 9s 9 11 mph 1016mb 71f 71f
4:50pm 3ft 12s 9s 4
mph
1015.8mb 72f 72f
3:50pm 3ft 13s 9s 2 4 mph 1015.7mb 71f 71f
2:50pm 3ft 13s 9s 7
mph
1015.7mb 71f 70f
1:50pm 3ft 13s 9s 7 9 mph 1016mb 71f 69f
12:50pm 3ft 13s 9s 7 9 mph 1016.3mb 71f 68f
11:50am 3.5ft 13s 10s 7 9 mph 1016.5mb 70f 68f
10:50am 3.5ft 14s 10s 9 11 mph 1016.6mb 70f 67f
9:50am 3.5ft 14s 8s 9 13 mph 1016.5mb 70f 66f
8:50am 4ft 14s 8s 13 16 mph 1016.1mb 70f 65f
7:50am 4ft 15s 9s 11 16 mph 1016mb 70f 65f
6:50am 4ft 14s 10s 11 13 mph 1015.7mb 70f 64f
5:50am 3ft 14s 9s 11 13 mph 1015mb 70f 65f
4:50am 3.5ft 14s 9s 9 11 mph 1014.9mb 70f 65f
3:50am 3.5ft 14s 10s 11 13 mph 1014.8mb 70f 66f
2:50am 3.5ft 12s 9s 11
mph
1014.8mb 70f 66f
1:50am 3.5ft 13s 9s 7 9 mph 1015mb 70f 67f
12:50am 3.5ft 14s 9s 7 9 mph 1015.2mb 71f 67f
Wed 09/17 11:50pm 3ft 15s 9s 7 9 mph 1015.6mb 71f 67f
10:50pm  -   -   -  7 9 mph 1015.8mb 71f 67f
9:50pm 3ft 14s 9s 7 9 mph 1016.1mb 70f 67f